createdAt,value
2019-03-21T00:01:53.807Z,103209.86
2019-03-21T00:04:27.693Z,103209.37
2019-03-21T00:07:01.391Z,103213.41
2019-03-21T00:10:14.809Z,103210.91
2019-03-21T00:12:48.636Z,103212.72
2019-03-21T00:15:26.453Z,103216.58
2019-03-21T00:18:11.803Z,103215.30
2019-03-21T00:20:45.615Z,103210.39
2019-03-21T00:23:19.369Z,103212.56
2019-03-21T00:25:53.093Z,103209.22
2019-03-21T00:28:36.663Z,103205.53
2019-03-21T00:31:27.001Z,103203.02
2019-03-21T00:34:01.193Z,103204.84
2019-03-21T00:36:35.767Z,103206.02
2019-03-21T00:39:10.435Z,103208.70
2019-03-21T00:41:53.471Z,103204.67
2019-03-21T00:44:36.701Z,103204.51
2019-03-21T00:47:10.640Z,103202.33
2019-03-21T00:49:45.288Z,103205.53
2019-03-21T00:52:34.207Z,103203.03
2019-03-21T00:55:17.051Z,103200.00
2019-03-21T00:58:00.413Z,103195.28
2019-03-21T01:00:37.586Z,103190.59
2019-03-21T01:03:12.394Z,103194.27
2019-03-21T01:05:47.706Z,103193.45
2019-03-21T01:08:22.667Z,103183.88
2019-03-21T01:10:56.772Z,103189.26
2019-03-21T01:13:32.941Z,103184.88
2019-03-21T01:16:06.727Z,103169.94
2019-03-21T01:18:40.791Z,103172.97
2019-03-21T01:21:14.971Z,103166.77
2019-03-21T01:23:58.324Z,103169.46
2019-03-21T01:26:33.111Z,103168.25
2019-03-21T01:29:15.691Z,103171.45
2019-03-21T01:31:58.497Z,103169.45
2019-03-21T01:34:32.187Z,103170.76
2019-03-21T01:37:16.160Z,103170.80
2019-03-21T01:39:50.965Z,103172.80
2019-03-21T01:42:25.295Z,103175.48
2019-03-21T01:44:59.310Z,103173.31
2019-03-21T01:47:43.239Z,103168.77
2019-03-21T01:50:17.764Z,103166.42
2019-03-21T01:52:51.731Z,103164.09
2019-03-21T01:55:25.050Z,103164.75
2019-03-21T01:57:59.195Z,103163.05
2019-03-21T02:00:35.235Z,103162.06
2019-03-21T02:03:09.261Z,103161.72
2019-03-21T02:05:43.691Z,103158.55
2019-03-21T02:08:27.205Z,103145.95
2019-03-21T02:11:03.252Z,103155.00
2019-03-21T02:13:46.815Z,103153.00
2019-03-21T02:16:20.997Z,103155.00
2019-03-21T02:18:54.726Z,103146.95
2019-03-21T02:21:40.267Z,103146.30
2019-03-21T02:24:15.143Z,103146.94
2019-03-21T02:26:48.819Z,103153.83
2019-03-21T02:29:23.254Z,103146.29
2019-03-21T02:32:06.103Z,103145.13
2019-03-21T02:34:50.950Z,103149.97
2019-03-21T02:37:34.062Z,103150.66
2019-03-21T02:40:10.750Z,103155.69
2019-03-21T02:42:45.244Z,103156.34
2019-03-21T02:45:19.964Z,103156.34
2019-03-21T02:47:54.886Z,103147.80
2019-03-21T02:50:31.350Z,103142.92
2019-03-21T02:53:06.908Z,103145.95
2019-03-21T02:55:41.965Z,103141.27
2019-03-21T02:58:16.593Z,103144.61
2019-03-21T03:01:00.005Z,103138.89
2019-03-21T03:03:35.740Z,103148.97
2019-03-21T03:06:09.841Z,103148.63
2019-03-21T03:08:53.804Z,103143.95
2019-03-21T03:11:27.815Z,103144.60
2019-03-21T03:14:10.682Z,103143.95
2019-03-21T03:16:53.480Z,103142.92
2019-03-21T03:19:27.696Z,103148.97
2019-03-21T03:22:01.674Z,103148.63
2019-03-21T03:24:36.638Z,103148.97
2019-03-21T03:27:11.233Z,103149.97
2019-03-21T03:29:45.060Z,103154.83
2019-03-21T03:32:33.560Z,103158.72
2019-03-21T03:35:17.055Z,103160.38
2019-03-21T03:37:52.054Z,103160.89
2019-03-21T03:40:30.161Z,103155.69
2019-03-21T03:43:19.640Z,103158.86
2019-03-21T03:45:54.591Z,103154.17
2019-03-21T03:48:28.627Z,103155.52
2019-03-21T03:51:02.733Z,103155.86
2019-03-21T03:53:37.245Z,103156.69
2019-03-21T03:56:11.219Z,103156.03
2019-03-21T03:58:46.874Z,103155.00
2019-03-21T04:01:30.092Z,103155.52
2019-03-21T04:04:05.363Z,103152.66
2019-03-21T04:06:49.009Z,103152.32
2019-03-21T04:09:23.204Z,103151.31
2019-03-21T04:12:06.537Z,103142.61
2019-03-21T04:14:41.813Z,103137.89
2019-03-21T04:17:16.007Z,103138.41
2019-03-21T04:19:50.114Z,103151.48
2019-03-21T04:22:33.552Z,103145.30
2019-03-21T04:25:08.994Z,103155.52
2019-03-21T04:27:43.791Z,103155.52
2019-03-21T04:30:18.014Z,103155.69
2019-03-21T04:32:51.682Z,103156.86
2019-03-21T04:35:26.438Z,103154.00
2019-03-21T04:38:00.658Z,103152.83
2019-03-21T04:40:34.771Z,103152.66
2019-03-21T04:43:18.725Z,103149.81
2019-03-21T04:46:02.961Z,103159.38
2019-03-21T04:48:28.520Z,103159.38
2019-03-21T04:51:02.535Z,103159.89
2019-03-21T04:53:36.647Z,103164.91
2019-03-21T04:56:20.561Z,103161.06
2019-03-21T04:58:56.592Z,103159.89
2019-03-21T05:01:30.858Z,103166.43
2019-03-21T05:04:05.013Z,103159.89
2019-03-21T05:06:48.356Z,103151.32
2019-03-21T05:09:22.943Z,103157.52
2019-03-21T05:12:12.184Z,103158.03
2019-03-21T05:14:55.947Z,103155.00
2019-03-21T05:17:31.011Z,103158.37
2019-03-21T05:20:05.030Z,103162.40
2019-03-21T05:22:48.415Z,103161.58
2019-03-21T05:25:22.484Z,103162.06
2019-03-21T05:27:56.277Z,103164.75
2019-03-21T05:30:33.939Z,103169.64
2019-03-21T05:33:18.034Z,103158.73
2019-03-21T05:36:02.044Z,103150.67
2019-03-21T05:38:36.780Z,103158.37
2019-03-21T05:41:11.212Z,103157.38
2019-03-21T05:43:51.195Z,103163.41
2019-03-21T05:46:27.041Z,103172.49
2019-03-21T05:49:11.554Z,103170.81
2019-03-21T05:51:45.023Z,103168.12
2019-03-21T05:54:21.245Z,103165.75
2019-03-21T05:56:54.745Z,103171.11
2019-03-21T05:59:28.788Z,103171.63
2019-03-21T06:02:11.763Z,103162.10
2019-03-21T06:04:55.327Z,103177.88
2019-03-21T06:07:43.651Z,103175.02
2019-03-21T06:10:18.502Z,103177.70
2019-03-21T06:12:52.753Z,103179.88
2019-03-21T06:15:37.134Z,103170.33
2019-03-21T06:18:58.171Z,103174.70
2019-03-21T06:22:04.994Z,103179.56
2019-03-21T06:25:00.572Z,103180.91
2019-03-21T06:27:34.248Z,103181.25
2019-03-21T06:30:10.209Z,103179.73
2019-03-21T06:32:44.803Z,103185.94
2019-03-21T06:35:25.718Z,103178.87
2019-03-21T06:38:09.062Z,103179.22
2019-03-21T06:40:42.710Z,103177.05
2019-03-21T06:43:16.732Z,103177.39
2019-03-21T06:45:50.711Z,103180.25
2019-03-21T06:48:24.879Z,103185.28
2019-03-21T06:51:07.825Z,103185.45
2019-03-21T06:53:41.957Z,103182.59
2019-03-21T06:56:15.752Z,103192.52
2019-03-21T06:58:49.523Z,103190.66
2019-03-21T07:01:23.525Z,103196.20
2019-03-21T07:04:07.573Z,103207.46
2019-03-21T07:06:50.710Z,103202.27
2019-03-21T07:09:33.688Z,103206.13
2019-03-21T07:12:16.558Z,103202.91
2019-03-21T07:15:00.477Z,103207.95
2019-03-21T07:17:35.515Z,103203.74
2019-03-21T07:20:09.651Z,103203.74
2019-03-21T07:22:43.443Z,103212.48
2019-03-21T07:25:17.404Z,103211.97
2019-03-21T07:28:00.766Z,103204.56
2019-03-21T07:30:34.420Z,103211.45
2019-03-21T07:33:09.406Z,103217.82
2019-03-21T07:35:52.558Z,103222.37
2019-03-21T07:38:26.225Z,103224.05
2019-03-21T07:41:10.415Z,103227.56
2019-03-21T07:43:44.576Z,103224.53
2019-03-21T07:46:18.307Z,103217.47
2019-03-21T07:48:52.624Z,103212.27
2019-03-21T07:51:35.461Z,103212.80
2019-03-21T07:54:18.652Z,103211.79
2019-03-21T07:56:52.316Z,103216.81
2019-03-21T07:59:26.459Z,103216.30
2019-03-21T08:02:00.741Z,103218.98
2019-03-21T08:04:43.901Z,103225.22
2019-03-21T08:07:17.948Z,103225.88
2019-03-21T08:09:52.779Z,103226.56
2019-03-21T08:12:26.419Z,103232.29
2019-03-21T08:15:00.564Z,103238.14
2019-03-21T08:17:35.264Z,103238.19
2019-03-21T08:20:09.713Z,103237.16
2019-03-21T08:22:59.196Z,103238.19
2019-03-21T08:25:32.951Z,103233.64
2019-03-21T08:28:06.516Z,103240.88
2019-03-21T08:31:16.950Z,103245.08
2019-03-21T08:33:51.043Z,103249.80
2019-03-21T08:36:26.179Z,103245.77
2019-03-21T08:38:59.237Z,103254.01
2019-03-21T08:41:32.957Z,103252.00
2019-03-21T08:44:07.044Z,103253.18
2019-03-21T08:46:40.867Z,103265.11
2019-03-21T08:49:15.743Z,103268.97
2019-03-21T08:51:49.689Z,103266.63
2019-03-21T08:54:39.079Z,103268.99
2019-03-21T08:57:13.107Z,103270.34
2019-03-21T08:59:48.046Z,103278.72
2019-03-21T09:02:21.724Z,103283.09
2019-03-21T09:04:55.841Z,103279.09
2019-03-21T09:07:29.455Z,103272.53
2019-03-21T09:10:03.422Z,103275.36
2019-03-21T09:12:51.103Z,103270.33
2019-03-21T09:15:31.216Z,103273.19
2019-03-21T09:18:06.036Z,103268.67
2019-03-21T09:20:39.797Z,103266.63
2019-03-21T09:23:28.607Z,103265.12
2019-03-21T09:26:03.045Z,103269.33
2019-03-21T09:28:38.368Z,103263.62
2019-03-21T09:31:12.558Z,103265.28
2019-03-21T09:33:46.413Z,103266.13
2019-03-21T09:36:29.825Z,103267.30
2019-03-21T09:39:05.778Z,103265.47
2019-03-21T09:41:39.461Z,103270.35
2019-03-21T09:44:13.320Z,103264.45
2019-03-21T09:46:56.666Z,103268.82
2019-03-21T09:49:31.150Z,103269.34
2019-03-21T09:52:14.721Z,103271.50
2019-03-21T09:54:48.649Z,103281.07
2019-03-21T09:57:23.324Z,103275.88
2019-03-21T09:59:57.337Z,103270.33
2019-03-21T10:02:31.381Z,103274.67
2019-03-21T10:05:16.161Z,103264.71
2019-03-21T10:07:59.775Z,103263.56
2019-03-21T10:10:43.319Z,103267.11
2019-03-21T10:13:17.009Z,103273.69
2019-03-21T10:16:00.197Z,103275.20
2019-03-21T10:18:50.096Z,103270.98
2019-03-21T10:21:24.375Z,103271.16
2019-03-21T10:23:58.447Z,103272.84
2019-03-21T10:26:32.425Z,103275.01
2019-03-21T10:29:07.066Z,103270.94
2019-03-21T10:31:41.160Z,103271.45
2019-03-21T10:34:14.831Z,103276.33
2019-03-21T10:36:48.505Z,103285.41
2019-03-21T10:39:22.538Z,103278.64
2019-03-21T10:42:05.501Z,103276.27
2019-03-21T10:44:51.233Z,103279.98
2019-03-21T10:47:34.692Z,103279.98
2019-03-21T10:50:08.449Z,103280.69
2019-03-21T10:52:42.550Z,103283.88
2019-03-21T10:55:16.209Z,103282.34
2019-03-21T10:57:50.199Z,103285.17
2019-03-21T11:00:33.103Z,103269.17
2019-03-21T11:03:17.823Z,103273.52
2019-03-21T11:05:51.863Z,103268.69
2019-03-21T11:08:25.893Z,103264.30
2019-03-21T11:11:00.692Z,103267.50
2019-03-21T11:13:35.874Z,103261.29
2019-03-21T11:16:09.725Z,103257.02
2019-03-21T11:18:43.775Z,103267.82
2019-03-21T11:21:30.446Z,103261.33
2019-03-21T11:24:05.379Z,103171.23
2019-03-21T11:27:35.233Z,103264.59
2019-03-21T11:30:15.924Z,103259.36
2019-03-21T11:32:45.938Z,103252.27
2019-03-21T11:35:21.787Z,103254.75
2019-03-21T11:37:54.369Z,103252.52
2019-03-21T11:40:30.997Z,103252.68
2019-03-21T11:43:05.495Z,103255.94
2019-03-21T11:45:48.894Z,103254.88
2019-03-21T11:48:24.526Z,103253.20
2019-03-21T11:50:58.555Z,103250.45
2019-03-21T11:53:35.059Z,103253.56
2019-03-21T11:56:18.715Z,103247.05
2019-03-21T11:59:02.797Z,103246.86
2019-03-21T12:01:38.692Z,103246.38
2019-03-21T12:04:21.960Z,103242.94
2019-03-21T12:06:57.321Z,103241.59
2019-03-21T12:09:31.761Z,103246.13
2019-03-21T12:12:14.449Z,103242.53
2019-03-21T12:15:03.926Z,103241.71
2019-03-21T12:17:37.932Z,103235.89
2019-03-21T12:20:12.516Z,103232.98
2019-03-21T12:22:48.547Z,103234.14
2019-03-21T12:25:22.268Z,103229.98
2019-03-21T12:27:56.825Z,103232.69
2019-03-21T12:30:32.750Z,103235.00
2019-03-21T12:33:07.748Z,103233.13
2019-03-21T12:35:41.600Z,103226.74
2019-03-21T12:38:15.300Z,103227.61
2019-03-21T12:40:58.168Z,103227.80
2019-03-21T12:43:40.968Z,103219.13
2019-03-21T12:46:14.431Z,103217.97
2019-03-21T12:48:49.566Z,103227.55
2019-03-21T12:51:23.721Z,103222.61
2019-03-21T12:54:16.366Z,103217.92
2019-03-21T12:56:53.240Z,103215.27
2019-03-21T12:59:36.913Z,103213.20
2019-03-21T13:02:11.528Z,103216.70
2019-03-21T13:04:54.179Z,103212.61
2019-03-21T13:07:39.315Z,103209.44
2019-03-21T13:10:13.775Z,103208.01
2019-03-21T13:12:56.590Z,103197.78
2019-03-21T13:15:44.282Z,103185.70
2019-03-21T13:18:27.068Z,103187.03
2019-03-21T13:21:00.828Z,103188.77
2019-03-21T13:23:47.973Z,103183.14
2019-03-21T13:26:31.721Z,103185.41
2019-03-21T13:29:06.487Z,103187.70
2019-03-21T13:31:40.877Z,103192.36
2019-03-21T13:34:27.910Z,103183.01
2019-03-21T13:37:02.955Z,103184.69
2019-03-21T13:39:36.963Z,103183.92
2019-03-21T13:42:11.294Z,103188.86
2019-03-21T13:44:54.291Z,103183.67
2019-03-21T13:47:37.006Z,103186.13
2019-03-21T13:50:19.724Z,103185.11
2019-03-21T13:53:05.132Z,103190.42
2019-03-21T13:55:39.578Z,103185.61
2019-03-21T13:58:24.089Z,103176.67
2019-03-21T14:00:58.139Z,103170.64
2019-03-21T14:03:41.453Z,103172.62
2019-03-21T14:06:38.448Z,103169.09
2019-03-21T14:09:12.962Z,103164.03
2019-03-21T14:11:47.263Z,103156.11
2019-03-21T14:14:21.762Z,103155.70
2019-03-21T14:16:56.770Z,103149.55
2019-03-21T14:19:31.289Z,103149.58
2019-03-21T14:22:05.341Z,103153.98
2019-03-21T14:24:48.210Z,103145.88
2019-03-21T14:27:31.798Z,103143.17
2019-03-21T14:30:06.348Z,103149.90
2019-03-21T14:32:48.673Z,103148.75
2019-03-21T14:35:32.719Z,103152.08
2019-03-21T14:38:06.804Z,103152.48
2019-03-21T14:40:56.810Z,103153.89
2019-03-21T14:43:30.883Z,103152.08
2019-03-21T14:46:07.397Z,103148.75
2019-03-21T14:48:41.085Z,103141.80
2019-03-21T14:51:15.114Z,103140.45
2019-03-21T14:53:57.881Z,103144.63
2019-03-21T14:56:41.242Z,103145.98
2019-03-21T14:59:17.134Z,103138.83
2019-03-21T15:01:52.040Z,103141.59
2019-03-21T15:04:27.833Z,103137.66
2019-03-21T15:07:10.945Z,103143.80
2019-03-21T15:09:56.488Z,103141.59
2019-03-21T15:12:39.729Z,103143.20
2019-03-21T15:15:22.869Z,103147.89
2019-03-21T15:17:58.570Z,103146.17
2019-03-21T15:20:32.150Z,103150.08
2019-03-21T15:23:05.829Z,103158.83
2019-03-21T15:25:41.716Z,103144.75
2019-03-21T15:28:25.794Z,103145.63
2019-03-21T15:30:59.532Z,103144.81
2019-03-21T15:33:34.638Z,103147.91
2019-03-21T15:36:21.396Z,103142.50
2019-03-21T15:38:55.760Z,103144.75
2019-03-21T15:41:30.153Z,103145.41
2019-03-21T15:44:05.027Z,103146.36
2019-03-21T15:46:40.819Z,103142.63
2019-03-21T15:49:23.996Z,103142.57
2019-03-21T15:51:57.735Z,103148.98
2019-03-21T15:54:32.616Z,103144.96
2019-03-21T15:57:16.173Z,103146.52
2019-03-21T15:59:52.430Z,103150.77
2019-03-21T16:02:25.707Z,103149.55
2019-03-21T16:05:09.838Z,103147.54
2019-03-21T16:07:44.236Z,103139.36
2019-03-21T16:10:18.601Z,103148.63
2019-03-21T16:12:52.612Z,103147.60
2019-03-21T16:15:35.403Z,103129.52
2019-03-21T16:18:20.840Z,103126.88
2019-03-21T16:21:09.283Z,103135.61
2019-03-21T16:24:04.545Z,103136.20
2019-03-21T16:26:29.857Z,103132.50
2019-03-21T16:29:04.182Z,103140.47
2019-03-21T16:31:47.396Z,103141.61
2019-03-21T16:34:21.523Z,103139.72
2019-03-21T16:36:56.438Z,103141.89
2019-03-21T16:39:31.659Z,103140.47
2019-03-21T16:42:05.440Z,103139.32
2019-03-21T16:44:42.684Z,103138.98
2019-03-21T16:47:26.059Z,103133.16
2019-03-21T16:50:00.359Z,103136.00
2019-03-21T16:52:34.728Z,103128.65
2019-03-21T16:55:17.058Z,103118.43
2019-03-21T16:57:51.124Z,103120.80
2019-03-21T17:00:34.171Z,103123.52
2019-03-21T17:03:08.695Z,103123.30
2019-03-21T17:05:51.693Z,103119.31
2019-03-21T17:08:34.582Z,103120.33
2019-03-21T17:11:23.299Z,103130.55
2019-03-21T17:14:06.142Z,103123.69
2019-03-21T17:16:39.899Z,103125.02
2019-03-21T17:19:23.084Z,103119.15
2019-03-21T17:22:05.785Z,103118.77
2019-03-21T17:24:48.302Z,103124.55
2019-03-21T17:27:31.676Z,103133.66
2019-03-21T17:30:14.458Z,103143.41
2019-03-21T17:32:57.207Z,103135.52
2019-03-21T17:35:40.395Z,103134.89
2019-03-21T17:38:14.183Z,103134.17
2019-03-21T17:40:47.962Z,103141.25
2019-03-21T17:43:21.953Z,103135.58
2019-03-21T17:45:55.707Z,103140.00
2019-03-21T17:48:39.579Z,103139.15
2019-03-21T17:51:13.555Z,103148.45
2019-03-21T17:53:47.388Z,103137.94
2019-03-21T17:56:32.246Z,103139.05
2019-03-21T17:59:14.611Z,103143.10
2019-03-21T18:01:48.259Z,103142.72
2019-03-21T18:04:35.753Z,103139.77
2019-03-21T18:07:09.380Z,103137.84
2019-03-21T18:09:43.756Z,103144.21
2019-03-21T18:12:18.113Z,103147.64
2019-03-21T18:14:52.290Z,103154.44
2019-03-21T18:17:41.340Z,103152.88
2019-03-21T18:20:15.446Z,103155.78
2019-03-21T18:22:51.937Z,103163.54
2019-03-21T18:25:25.898Z,103171.16
2019-03-21T18:28:01.024Z,103164.11
2019-03-21T18:30:36.008Z,103165.02
2019-03-21T18:33:10.965Z,103163.67
2019-03-21T18:35:44.656Z,103162.17
2019-03-21T18:38:18.393Z,103163.67
2019-03-21T18:40:52.216Z,103163.52
2019-03-21T18:43:25.908Z,103160.00
2019-03-21T18:46:00.387Z,103165.77
2019-03-21T18:48:49.760Z,103170.45
2019-03-21T18:51:23.977Z,103170.23
2019-03-21T18:54:07.149Z,103172.02
2019-03-21T18:56:50.113Z,103164.08
2019-03-21T18:59:33.559Z,103161.73
2019-03-21T19:02:07.605Z,103170.71
2019-03-21T19:04:43.046Z,103165.84
2019-03-21T19:07:25.788Z,103168.69
2019-03-21T19:10:00.470Z,103165.21
2019-03-21T19:12:33.968Z,103159.25
2019-03-21T19:15:09.765Z,103158.02
2019-03-21T19:17:44.265Z,103160.53
2019-03-21T19:20:19.014Z,103163.56
2019-03-21T19:23:02.160Z,103164.91
2019-03-21T19:25:36.407Z,103176.92
2019-03-21T19:28:10.444Z,103177.96
2019-03-21T19:30:53.432Z,103173.33
2019-03-21T19:33:37.223Z,103173.85
2019-03-21T19:36:11.315Z,103171.22
2019-03-21T19:38:46.393Z,103182.49
2019-03-21T19:41:21.265Z,103175.42
2019-03-21T19:43:55.606Z,103178.78
2019-03-21T19:46:38.724Z,103174.25
2019-03-21T19:49:12.714Z,103177.16
2019-03-21T19:51:46.772Z,103177.50
2019-03-21T19:54:21.785Z,103173.52
2019-03-21T19:56:56.250Z,103176.91
2019-03-21T19:59:30.098Z,103192.77
2019-03-21T20:02:04.373Z,103190.97
2019-03-21T20:04:38.157Z,103191.31
2019-03-21T20:07:21.659Z,103193.33
2019-03-21T20:09:56.478Z,103196.57
2019-03-21T20:12:39.419Z,103189.37
2019-03-21T20:15:28.442Z,103192.02
2019-03-21T20:18:11.895Z,103203.74
2019-03-21T20:20:46.260Z,103208.02
2019-03-21T20:23:29.618Z,103200.64
2019-03-21T20:26:03.473Z,103200.64
2019-03-21T20:28:37.920Z,103193.39
2019-03-21T20:31:21.248Z,103193.02
2019-03-21T20:33:55.193Z,103198.98
2019-03-21T20:36:29.441Z,103193.83
2019-03-21T20:39:14.289Z,103197.01
2019-03-21T20:41:59.383Z,103202.19
2019-03-21T20:44:35.594Z,103199.70
2019-03-21T20:47:25.718Z,103195.07
2019-03-21T20:50:09.223Z,103200.55
2019-03-21T20:52:43.228Z,103206.70
2019-03-21T20:55:17.268Z,103204.05
2019-03-21T20:58:02.436Z,103207.58
2019-03-21T21:00:36.821Z,103219.20
2019-03-21T21:03:11.716Z,103210.47
2019-03-21T21:05:46.172Z,103219.41
2019-03-21T21:08:29.307Z,103218.53
2019-03-21T21:11:08.479Z,103220.41
2019-03-21T21:13:44.114Z,103221.05
2019-03-21T21:16:31.030Z,103221.72
2019-03-21T21:19:05.864Z,103219.77
2019-03-21T21:21:38.440Z,103220.77
2019-03-21T21:24:29.948Z,103218.39
2019-03-21T21:27:05.192Z,103230.67
2019-03-21T21:29:39.142Z,103224.78
2019-03-21T21:32:14.286Z,103221.09
2019-03-21T21:34:48.674Z,103223.95
2019-03-21T21:37:32.264Z,103218.73
2019-03-21T21:40:08.920Z,103216.09
2019-03-21T21:42:42.921Z,103212.09
2019-03-21T21:45:18.775Z,103214.75
2019-03-21T21:48:01.624Z,103215.05
2019-03-21T21:50:44.277Z,103218.09
2019-03-21T21:53:27.764Z,103220.65
2019-03-21T21:56:03.878Z,103223.88
2019-03-21T21:58:47.383Z,103213.28
2019-03-21T22:01:22.526Z,103211.75
2019-03-21T22:04:04.641Z,103211.88
2019-03-21T22:06:33.526Z,103208.17
2019-03-21T22:09:09.977Z,103210.38
2019-03-21T22:11:44.027Z,103211.73
2019-03-21T22:14:21.001Z,103203.35
2019-03-21T22:17:04.491Z,103191.92
2019-03-21T22:19:42.499Z,103195.34
2019-03-21T22:22:19.405Z,103196.34
2019-03-21T22:24:54.377Z,103194.31
2019-03-21T22:27:37.572Z,103194.00
2019-03-21T22:30:12.508Z,103182.58
2019-03-21T22:32:55.400Z,103182.56
2019-03-21T22:35:38.506Z,103184.92
2019-03-21T22:38:12.997Z,103192.01
2019-03-21T22:40:47.014Z,103193.36
2019-03-21T22:43:30.043Z,103186.59
2019-03-21T22:46:04.491Z,103195.02
2019-03-21T22:48:39.026Z,103185.30
2019-03-21T22:51:13.997Z,103186.32
2019-03-21T22:53:57.053Z,103185.07
2019-03-21T22:56:40.999Z,103183.94
2019-03-21T22:59:10.702Z,103184.61
2019-03-21T23:01:45.739Z,103188.64
2019-03-21T23:04:19.606Z,103188.81
2019-03-21T23:07:03.574Z,103187.30
2019-03-21T23:09:39.037Z,103187.15
2019-03-21T23:12:12.839Z,103184.12
2019-03-21T23:14:46.949Z,103194.53
2019-03-21T23:17:20.716Z,103186.80
2019-03-21T23:19:54.657Z,103178.56
2019-03-21T23:22:38.018Z,103187.45
2019-03-21T23:25:13.158Z,103187.30
2019-03-21T23:27:47.212Z,103185.45
2019-03-21T23:30:21.189Z,103183.28
2019-03-21T23:32:55.368Z,103182.91
2019-03-21T23:39:09.479Z,103190.34
2019-03-21T23:41:44.223Z,103197.39
2019-03-21T23:44:19.009Z,103192.87
2019-03-21T23:47:01.915Z,103185.95
2019-03-21T23:49:44.929Z,103190.31
2019-03-21T23:52:18.963Z,103184.92
2019-03-21T23:54:54.159Z,103182.26
2019-03-21T23:57:28.398Z,103177.38
